createdAt,value
2023-02-22T00:02:10.578Z,3.67
2023-02-22T00:04:39.569Z,3.90
2023-02-22T00:07:07.188Z,3.20
2023-02-22T00:09:34.060Z,3.60
2023-02-22T00:12:01.252Z,3.60
2023-02-22T00:14:28.442Z,3.40
2023-02-22T00:16:59.527Z,3.70
2023-02-22T00:19:28.008Z,4.10
2023-02-22T00:21:54.882Z,3.87
2023-02-22T00:24:24.441Z,4.33
2023-02-22T00:26:55.399Z,4.47
2023-02-22T00:29:23.888Z,4.10
2023-02-22T00:31:50.798Z,4.40
2023-02-22T00:34:17.667Z,4.77
2023-02-22T00:36:49.055Z,4.60
2023-02-22T00:39:16.470Z,4.50
2023-02-22T00:41:43.660Z,5.43
2023-02-22T00:44:10.984Z,5.70
2023-02-22T00:46:38.201Z,7.03
2023-02-22T00:49:05.197Z,7.90
2023-02-22T00:51:33.813Z,6.60
2023-02-22T00:54:00.829Z,6.23
2023-02-22T00:56:27.751Z,5.97
2023-02-22T00:58:54.537Z,6.80
2023-02-22T01:01:21.385Z,5.93
2023-02-22T01:03:48.308Z,5.70
2023-02-22T01:06:15.274Z,5.07
2023-02-22T01:08:45.686Z,4.77
2023-02-22T01:11:15.571Z,5.10
2023-02-22T01:13:42.661Z,6.10
2023-02-22T01:16:09.470Z,6.27
2023-02-22T01:18:37.256Z,5.73
2023-02-22T01:21:05.768Z,6.00
2023-02-22T01:23:33.216Z,6.50
2023-02-22T01:26:00.010Z,5.83
2023-02-22T01:28:26.786Z,6.60
2023-02-22T01:30:56.220Z,5.43
2023-02-22T01:33:23.394Z,5.40
2023-02-22T01:35:51.215Z,6.30
2023-02-22T01:38:18.200Z,6.83
2023-02-22T01:40:49.694Z,7.30
2023-02-22T01:43:29.647Z,6.93
2023-02-22T01:46:03.308Z,7.60
2023-02-22T01:48:38.577Z,7.70
2023-02-22T01:51:20.108Z,8.00
2023-02-22T01:53:54.162Z,7.83
2023-02-22T01:56:23.710Z,8.00
2023-02-22T01:58:58.370Z,8.33
2023-02-22T02:01:28.326Z,8.33
2023-02-22T02:03:59.646Z,8.47
2023-02-22T02:06:31.521Z,8.33
2023-02-22T02:09:28.571Z,8.17
2023-02-22T02:11:56.120Z,7.90
2023-02-22T02:14:22.894Z,7.83
2023-02-22T02:16:53.315Z,8.17
2023-02-22T02:19:45.642Z,8.73
2023-02-22T02:22:26.976Z,8.97
2023-02-22T02:25:40.696Z,8.80
2023-02-22T02:28:25.276Z,8.97
2023-02-22T02:31:21.384Z,10.00
2023-02-22T02:34:12.075Z,9.43
2023-02-22T02:37:01.003Z,9.90
2023-02-22T02:39:51.169Z,9.80
2023-02-22T02:42:23.466Z,10.50
2023-02-22T02:45:02.612Z,9.60
2023-02-22T02:47:35.671Z,9.23
2023-02-22T02:50:09.196Z,9.50
2023-02-22T02:52:37.439Z,9.03
2023-02-22T02:55:06.996Z,8.93
2023-02-22T02:57:33.792Z,8.23
2023-02-22T03:00:00.605Z,8.77
2023-02-22T03:02:55.104Z,8.67
2023-02-22T03:05:31.815Z,9.43
2023-02-22T03:08:31.605Z,9.20
2023-02-22T03:11:17.432Z,9.17
2023-02-22T03:14:12.057Z,9.17
2023-02-22T03:17:04.613Z,9.27
2023-02-22T03:19:38.554Z,9.10
2023-02-22T03:22:16.492Z,9.13
2023-02-22T03:24:58.886Z,8.90
2023-02-22T03:27:49.108Z,8.83
2023-02-22T03:30:31.966Z,7.83
2023-02-22T03:33:12.392Z,8.40
2023-02-22T03:35:48.868Z,9.13
2023-02-22T03:38:19.068Z,7.97
2023-02-22T03:40:51.031Z,8.30
2023-02-22T03:43:25.923Z,7.93
2023-02-22T03:45:53.358Z,8.63
2023-02-22T03:48:41.710Z,7.90
2023-02-22T03:51:08.591Z,7.60
2023-02-22T03:53:37.143Z,8.20
2023-02-22T03:56:08.486Z,8.20
2023-02-22T03:58:37.713Z,8.27
2023-02-22T04:01:05.005Z,7.60
2023-02-22T04:03:31.850Z,7.37
2023-02-22T04:05:58.638Z,7.47
2023-02-22T04:08:25.447Z,7.80
2023-02-22T04:10:52.516Z,7.30
2023-02-22T04:13:19.389Z,7.33
2023-02-22T04:15:46.275Z,6.80
2023-02-22T04:18:14.066Z,6.43
2023-02-22T04:20:40.902Z,6.60
2023-02-22T04:23:07.719Z,7.67
2023-02-22T04:25:34.500Z,6.37
2023-02-22T04:28:01.322Z,7.33
2023-02-22T04:30:30.074Z,6.13
2023-02-22T04:32:57.411Z,5.90
2023-02-22T04:35:24.408Z,6.47
2023-02-22T04:37:51.286Z,6.77
2023-02-22T04:40:18.506Z,7.20
2023-02-22T04:42:45.286Z,7.50
2023-02-22T04:45:13.286Z,6.80
2023-02-22T04:47:40.235Z,7.37
2023-02-22T04:50:11.022Z,6.93
2023-02-22T04:52:37.843Z,6.60
2023-02-22T04:55:05.320Z,6.60
2023-02-22T04:57:32.508Z,6.23
2023-02-22T04:59:59.503Z,5.97
2023-02-22T05:02:26.473Z,5.90
2023-02-22T05:04:53.414Z,6.90
2023-02-22T05:07:20.216Z,6.40
2023-02-22T05:09:47.000Z,7.27
2023-02-22T05:12:13.817Z,6.40
2023-02-22T05:14:41.485Z,7.07
2023-02-22T05:17:08.282Z,6.30
2023-02-22T05:19:35.123Z,6.77
2023-02-22T05:22:01.972Z,6.33
2023-02-22T05:24:28.720Z,6.70
2023-02-22T05:26:55.529Z,6.87
2023-02-22T05:29:22.328Z,6.97
2023-02-22T05:31:49.243Z,7.90
2023-02-22T05:34:16.569Z,7.83
2023-02-22T05:36:43.373Z,7.87
2023-02-22T05:39:10.185Z,8.43
2023-02-22T05:41:36.931Z,8.80
2023-02-22T05:44:03.978Z,8.07
2023-02-22T05:46:30.906Z,8.10
2023-02-22T05:48:57.816Z,8.53
2023-02-22T05:51:24.843Z,7.77
2023-02-22T05:53:52.514Z,8.50
2023-02-22T05:56:28.641Z,8.63
2023-02-22T05:58:55.761Z,7.37
2023-02-22T06:01:23.075Z,8.03
2023-02-22T06:03:51.676Z,7.70
2023-02-22T06:06:22.652Z,7.17
2023-02-22T06:08:49.864Z,6.97
2023-02-22T06:11:17.162Z,7.63
2023-02-22T06:13:51.530Z,7.23
2023-02-22T06:16:19.500Z,7.70
2023-02-22T06:18:46.825Z,7.70
2023-02-22T06:21:13.699Z,7.50
2023-02-22T06:23:40.470Z,7.37
2023-02-22T06:26:07.318Z,7.40
2023-02-22T06:28:34.113Z,8.00
2023-02-22T06:31:00.919Z,7.83
2023-02-22T06:33:27.719Z,7.87
2023-02-22T06:35:54.521Z,7.23
2023-02-22T06:38:24.667Z,8.80
2023-02-22T06:40:52.100Z,8.43
2023-02-22T06:43:19.279Z,8.80
2023-02-22T06:45:46.555Z,8.80
2023-02-22T06:48:13.909Z,8.80
2023-02-22T06:50:40.707Z,9.00
2023-02-22T06:53:07.549Z,9.67
2023-02-22T06:55:35.613Z,10.47
2023-02-22T06:58:04.858Z,9.87
2023-02-22T07:00:32.639Z,10.47
2023-02-22T07:03:00.521Z,9.20
2023-02-22T07:05:28.504Z,10.63
2023-02-22T07:08:02.780Z,10.33
2023-02-22T07:10:31.522Z,9.80
2023-02-22T07:12:58.424Z,8.83
2023-02-22T07:15:27.775Z,9.30
2023-02-22T07:17:55.088Z,10.00
2023-02-22T07:20:24.354Z,9.17
2023-02-22T07:22:51.506Z,8.10
2023-02-22T07:25:19.649Z,7.30
2023-02-22T07:27:47.376Z,6.93
2023-02-22T07:30:25.908Z,6.13
2023-02-22T07:32:55.098Z,5.33
2023-02-22T07:35:36.583Z,5.17
2023-02-22T07:38:06.104Z,5.03
2023-02-22T07:40:32.881Z,5.23
2023-02-22T07:43:16.692Z,5.40
2023-02-22T07:45:44.467Z,5.93
2023-02-22T07:48:12.603Z,4.90
2023-02-22T07:50:40.391Z,5.73
2023-02-22T07:53:12.847Z,5.23
2023-02-22T07:55:39.691Z,6.60
2023-02-22T07:58:08.870Z,8.30
2023-02-22T08:00:40.434Z,7.70
2023-02-22T08:03:13.453Z,8.37
2023-02-22T08:05:45.514Z,7.83
2023-02-22T08:08:12.644Z,7.80
2023-02-22T08:10:39.415Z,7.43
2023-02-22T08:13:06.374Z,7.97
2023-02-22T08:15:36.490Z,8.00
2023-02-22T08:18:09.094Z,8.47
2023-02-22T08:20:37.359Z,7.67
2023-02-22T08:23:05.665Z,7.87
2023-02-22T08:25:33.034Z,7.37
2023-02-22T08:28:10.758Z,5.80
2023-02-22T08:30:40.539Z,5.93
2023-02-22T08:33:07.714Z,6.10
2023-02-22T08:35:34.772Z,6.20
2023-02-22T08:38:05.968Z,6.43
2023-02-22T08:40:37.324Z,5.57
2023-02-22T08:43:04.674Z,5.20
2023-02-22T08:45:31.524Z,5.70
2023-02-22T08:47:59.417Z,4.60
2023-02-22T08:50:32.007Z,4.60
2023-02-22T08:53:01.986Z,4.30
2023-02-22T08:55:32.895Z,4.83
2023-02-22T08:58:02.798Z,4.97
2023-02-22T09:00:33.209Z,4.30
2023-02-22T09:03:05.788Z,4.67
2023-02-22T09:05:33.510Z,4.83
2023-02-22T09:08:01.418Z,4.23
2023-02-22T09:10:32.160Z,3.67
2023-02-22T09:13:00.785Z,3.90
2023-02-22T09:15:28.590Z,3.90
2023-02-22T09:17:55.912Z,4.00
2023-02-22T09:20:24.597Z,3.97
2023-02-22T09:22:52.672Z,4.20
2023-02-22T09:25:20.974Z,4.57
2023-02-22T09:27:52.368Z,4.50
2023-02-22T09:30:31.959Z,4.50
2023-02-22T09:33:03.586Z,4.73
2023-02-22T09:35:31.026Z,4.37
2023-02-22T09:38:00.125Z,5.07
2023-02-22T09:40:30.803Z,4.70
2023-02-22T09:43:37.889Z,4.70
2023-02-22T09:46:37.698Z,5.07
2023-02-22T09:49:13.832Z,4.87
2023-02-22T09:51:52.561Z,5.00
2023-02-22T09:54:35.867Z,5.13
2023-02-22T09:57:08.634Z,4.90
2023-02-22T09:59:57.449Z,4.70
2023-02-22T10:02:31.212Z,5.10
2023-02-22T10:05:00.946Z,5.10
2023-02-22T10:07:47.482Z,4.63
2023-02-22T10:10:23.183Z,5.00
2023-02-22T10:13:22.151Z,4.80
2023-02-22T10:16:28.215Z,5.03
2023-02-22T10:19:22.418Z,5.23
2023-02-22T10:22:11.314Z,5.60
2023-02-22T10:25:27.154Z,5.57
2023-02-22T10:28:19.985Z,5.30
2023-02-22T10:30:56.430Z,5.30
2023-02-22T10:33:32.353Z,5.00
2023-02-22T10:35:59.227Z,5.53
2023-02-22T10:38:32.687Z,4.70
2023-02-22T10:41:09.207Z,8.80
2023-02-22T10:43:40.992Z,23.70
2023-02-22T10:46:13.453Z,5.70
2023-02-22T10:48:42.920Z,5.77
2023-02-22T10:51:10.455Z,9.10
2023-02-22T10:53:38.587Z,4.73
2023-02-22T10:56:21.272Z,3.97
2023-02-22T10:59:05.768Z,4.17
2023-02-22T11:01:32.585Z,4.17
2023-02-22T11:04:12.229Z,4.00
2023-02-22T11:06:42.390Z,3.73
2023-02-22T11:09:24.495Z,4.87
2023-02-22T11:12:16.802Z,3.77
2023-02-22T11:14:43.590Z,4.03
2023-02-22T11:17:17.630Z,3.90
2023-02-22T11:19:49.342Z,4.20
2023-02-22T11:22:41.368Z,4.23
2023-02-22T11:25:08.846Z,4.10
2023-02-22T11:27:47.006Z,4.27
2023-02-22T11:30:32.686Z,3.73
2023-02-22T11:33:15.901Z,3.70
2023-02-22T11:36:05.881Z,3.80
2023-02-22T11:38:36.828Z,3.87
2023-02-22T11:41:22.875Z,3.80
2023-02-22T11:43:51.754Z,3.47
2023-02-22T11:46:30.863Z,3.27
2023-02-22T11:49:17.796Z,3.03
2023-02-22T11:52:28.152Z,3.20
2023-02-22T11:55:36.364Z,3.00
2023-02-22T11:58:33.324Z,2.97
2023-02-22T12:01:07.784Z,3.50
2023-02-22T12:04:22.447Z,2.93
2023-02-22T12:07:21.758Z,2.97
2023-02-22T12:10:18.271Z,3.30
2023-02-22T12:13:19.446Z,3.17
2023-02-22T12:16:32.623Z,3.10
2023-02-22T12:19:11.448Z,3.40
2023-02-22T12:21:43.772Z,3.20
2023-02-22T12:24:17.091Z,3.30
2023-02-22T12:26:50.681Z,2.43
2023-02-22T12:30:07.201Z,3.07
2023-02-22T12:32:47.469Z,3.60
2023-02-22T12:35:28.570Z,3.30
2023-02-22T12:38:13.038Z,2.80
2023-02-22T12:41:29.775Z,3.03
2023-02-22T12:44:14.618Z,3.00
2023-02-22T12:46:47.917Z,2.27
2023-02-22T12:49:38.641Z,3.03
2023-02-22T12:52:43.150Z,2.73
2023-02-22T12:55:17.027Z,2.57
2023-02-22T12:57:57.125Z,2.80
2023-02-22T13:00:37.946Z,2.80
2023-02-22T13:03:39.557Z,2.40
2023-02-22T13:06:49.557Z,2.43
2023-02-22T13:09:39.625Z,2.27
2023-02-22T13:13:04.682Z,2.70
2023-02-22T13:15:52.836Z,2.20
2023-02-22T13:18:42.639Z,2.50
2023-02-22T13:21:37.037Z,2.40
2023-02-22T13:24:18.532Z,2.63
2023-02-22T13:27:00.115Z,2.10
2023-02-22T13:29:34.666Z,2.00
2023-02-22T13:32:28.514Z,1.90
2023-02-22T13:35:48.885Z,2.17
2023-02-22T13:38:57.952Z,1.90
2023-02-22T13:41:48.266Z,1.90
2023-02-22T13:44:52.294Z,1.80
2023-02-22T13:47:50.023Z,2.10
2023-02-22T13:50:49.697Z,1.67
2023-02-22T13:53:28.397Z,1.50
2023-02-22T13:55:59.322Z,1.60
2023-02-22T13:58:26.671Z,1.40
2023-02-22T14:00:55.605Z,1.70
2023-02-22T14:03:23.986Z,1.80
2023-02-22T14:05:53.821Z,1.60
2023-02-22T14:08:21.705Z,1.60
2023-02-22T14:11:00.573Z,1.47
2023-02-22T14:13:33.358Z,1.87
2023-02-22T14:16:00.194Z,1.63
2023-02-22T14:18:41.734Z,1.83
2023-02-22T14:21:12.536Z,1.50
2023-02-22T14:23:43.537Z,1.80
2023-02-22T14:26:22.806Z,1.80
2023-02-22T14:29:10.352Z,1.70
2023-02-22T14:31:43.421Z,1.90
2023-02-22T14:34:34.914Z,1.90
2023-02-22T14:37:19.899Z,1.50
2023-02-22T14:39:52.734Z,1.80
2023-02-22T14:42:28.251Z,2.30
2023-02-22T14:45:20.008Z,1.83
2023-02-22T14:48:27.980Z,1.87
2023-02-22T14:51:11.764Z,1.93
2023-02-22T14:53:57.428Z,1.73
2023-02-22T14:56:39.465Z,1.93
2023-02-22T14:59:24.053Z,1.97
2023-02-22T15:02:12.783Z,2.23
2023-02-22T15:04:43.771Z,1.90
2023-02-22T15:07:29.103Z,1.83
2023-02-22T15:10:23.869Z,1.83
2023-02-22T15:13:11.380Z,1.97
2023-02-22T15:15:54.901Z,2.23
2023-02-22T15:18:30.094Z,2.47
2023-02-22T15:21:06.932Z,2.23
2023-02-22T15:23:54.210Z,2.37
2023-02-22T15:26:31.105Z,2.33
2023-02-22T15:28:59.753Z,2.30
2023-02-22T15:31:39.758Z,2.33
2023-02-22T15:34:18.978Z,2.67
2023-02-22T15:36:51.200Z,2.33
2023-02-22T15:39:29.722Z,2.60
2023-02-22T15:42:20.872Z,2.23
2023-02-22T15:44:52.344Z,2.40
2023-02-22T15:47:18.989Z,2.10
2023-02-22T15:49:46.773Z,2.40
2023-02-22T15:52:31.834Z,1.93
2023-02-22T15:54:58.669Z,2.23
2023-02-22T15:57:27.363Z,2.00
2023-02-22T15:59:57.259Z,2.10
2023-02-22T16:02:37.298Z,3.27
2023-02-22T16:05:09.909Z,2.47
2023-02-22T16:07:50.506Z,2.97
2023-02-22T16:10:33.454Z,2.20
2023-02-22T16:13:31.484Z,2.07
2023-02-22T16:16:05.919Z,2.37
2023-02-22T16:18:36.078Z,2.50
2023-02-22T16:21:13.917Z,2.40
2023-02-22T16:24:10.289Z,2.17
2023-02-22T16:26:41.309Z,2.80
2023-02-22T16:29:09.586Z,2.77
2023-02-22T16:31:39.995Z,3.10
2023-02-22T16:34:08.420Z,2.90
2023-02-22T16:36:45.026Z,2.40
2023-02-22T16:39:21.322Z,2.10
2023-02-22T16:41:48.612Z,2.40
2023-02-22T16:44:16.886Z,2.20
2023-02-22T16:46:44.051Z,2.20
2023-02-22T16:49:12.499Z,1.93
2023-02-22T16:51:49.908Z,1.73
2023-02-22T16:54:28.431Z,1.50
2023-02-22T16:56:57.072Z,2.17
2023-02-22T16:59:23.922Z,4.30
2023-02-22T17:01:50.748Z,4.30
2023-02-22T17:04:24.141Z,4.67
2023-02-22T17:06:51.437Z,2.37
2023-02-22T17:09:22.140Z,2.23
2023-02-22T17:11:51.544Z,2.10
2023-02-22T17:14:23.207Z,1.97
2023-02-22T17:16:53.384Z,1.60
2023-02-22T17:19:24.352Z,1.60
2023-02-22T17:21:51.176Z,1.50
2023-02-22T17:24:22.938Z,1.93
2023-02-22T17:26:53.031Z,2.20
2023-02-22T17:29:20.616Z,2.40
2023-02-22T17:31:48.881Z,2.90
2023-02-22T17:34:15.895Z,2.30
2023-02-22T17:36:43.100Z,2.00
2023-02-22T17:39:10.551Z,2.13
2023-02-22T17:41:40.348Z,1.63
2023-02-22T17:44:07.733Z,1.90
2023-02-22T17:46:36.637Z,1.53
2023-02-22T17:49:03.542Z,1.60
2023-02-22T17:51:30.401Z,2.23
2023-02-22T17:53:57.396Z,2.00
2023-02-22T17:56:24.499Z,2.53
2023-02-22T17:58:54.898Z,2.67
2023-02-22T18:01:29.363Z,2.70
2023-02-22T18:04:02.705Z,2.57
2023-02-22T18:06:32.549Z,2.70
2023-02-22T18:09:00.907Z,2.97
2023-02-22T18:11:32.394Z,2.80
2023-02-22T18:13:59.358Z,2.90
2023-02-22T18:16:26.813Z,2.87
2023-02-22T18:18:56.841Z,3.33
2023-02-22T18:21:24.144Z,5.80
2023-02-22T18:23:50.970Z,5.63
2023-02-22T18:26:21.697Z,5.67
2023-02-22T18:28:49.169Z,6.00
2023-02-22T18:31:19.475Z,6.27
2023-02-22T18:33:49.952Z,5.40
2023-02-22T18:36:22.542Z,5.20
2023-02-22T18:38:52.816Z,4.33
2023-02-22T18:41:25.199Z,3.87
2023-02-22T18:43:55.035Z,3.17
2023-02-22T18:46:23.818Z,3.20
2023-02-22T18:48:55.045Z,3.70
2023-02-22T18:51:23.216Z,2.87
2023-02-22T18:53:54.736Z,2.97
2023-02-22T18:56:22.222Z,3.03
2023-02-22T18:58:58.640Z,3.10
2023-02-22T19:01:25.891Z,3.23
2023-02-22T19:03:53.237Z,2.57
2023-02-22T19:06:22.488Z,2.40
2023-02-22T19:08:50.754Z,2.57
2023-02-22T19:11:22.141Z,2.70
2023-02-22T19:13:52.102Z,3.30
2023-02-22T19:16:21.753Z,3.20
2023-02-22T19:18:52.322Z,3.23
2023-02-22T19:21:20.310Z,3.47
2023-02-22T19:23:48.288Z,4.17
2023-02-22T19:26:23.891Z,3.67
2023-02-22T19:28:53.438Z,3.77
2023-02-22T19:31:22.512Z,3.90
2023-02-22T19:33:52.507Z,3.40
2023-02-22T19:36:23.014Z,3.10
2023-02-22T19:38:50.038Z,3.30
2023-02-22T19:41:21.768Z,3.53
2023-02-22T19:43:51.485Z,3.70
2023-02-22T19:46:18.884Z,3.30
2023-02-22T19:48:45.744Z,3.37
2023-02-22T19:51:16.750Z,3.90
2023-02-22T19:53:45.045Z,4.50
2023-02-22T19:56:18.072Z,3.83
2023-02-22T19:58:48.262Z,3.90
2023-02-22T20:01:29.031Z,3.93
2023-02-22T20:04:08.317Z,4.27
2023-02-22T20:06:42.278Z,3.33
2023-02-22T20:09:14.239Z,3.83
2023-02-22T20:11:41.079Z,4.00
2023-02-22T20:14:07.942Z,3.97
2023-02-22T20:16:35.509Z,4.23
2023-02-22T20:19:02.361Z,4.40
2023-02-22T20:21:34.625Z,4.47
2023-02-22T20:24:06.683Z,4.27
2023-02-22T20:26:36.639Z,4.10
2023-02-22T20:29:06.142Z,4.10
2023-02-22T20:31:33.341Z,3.80
2023-02-22T20:34:02.339Z,4.20
2023-02-22T20:36:30.423Z,5.00
2023-02-22T20:38:59.929Z,4.80
2023-02-22T20:41:32.747Z,5.10
2023-02-22T20:44:01.711Z,6.47
2023-02-22T20:46:35.549Z,6.07
2023-02-22T20:49:07.193Z,5.70
2023-02-22T20:51:34.988Z,6.50
2023-02-22T20:54:02.004Z,5.80
2023-02-22T20:56:32.272Z,5.97
2023-02-22T20:59:01.976Z,6.00
2023-02-22T21:01:30.022Z,5.13
2023-02-22T21:04:06.222Z,5.17
2023-02-22T21:06:35.548Z,5.17
2023-02-22T21:09:07.155Z,5.37
2023-02-22T21:11:35.142Z,5.57
2023-02-22T21:14:02.432Z,5.50
2023-02-22T21:16:33.532Z,5.90
2023-02-22T21:19:04.103Z,5.67
2023-02-22T21:21:31.862Z,5.93
2023-02-22T21:24:01.557Z,5.90
2023-02-22T21:26:31.595Z,5.77
2023-02-22T21:29:01.149Z,5.90
2023-02-22T21:31:28.770Z,5.13
2023-02-22T21:33:58.667Z,4.80
2023-02-22T21:36:26.658Z,5.20
2023-02-22T21:38:57.708Z,5.77
2023-02-22T21:41:31.336Z,5.40
2023-02-22T21:43:59.864Z,5.47
2023-02-22T21:46:29.132Z,5.27
2023-02-22T21:48:58.372Z,5.60
2023-02-22T21:51:31.325Z,5.40
2023-02-22T21:54:04.734Z,5.20
2023-02-22T21:56:36.371Z,5.30
2023-02-22T21:59:18.750Z,5.37
2023-02-22T22:01:49.908Z,4.40
2023-02-22T22:04:23.848Z,4.63
2023-02-22T22:06:53.282Z,4.53
2023-02-22T22:09:23.290Z,4.70
2023-02-22T22:12:01.209Z,4.60
2023-02-22T22:14:28.293Z,6.90
2023-02-22T22:16:58.546Z,5.93
2023-02-22T22:19:30.272Z,6.17
2023-02-22T22:22:00.799Z,6.90
2023-02-22T22:24:31.948Z,7.97
2023-02-22T22:27:03.540Z,7.97
2023-02-22T22:29:34.151Z,9.13
2023-02-22T22:32:01.361Z,9.00
2023-02-22T22:34:29.535Z,9.97
2023-02-22T22:36:58.086Z,9.17
2023-02-22T22:39:26.753Z,8.53
2023-02-22T22:41:53.668Z,8.37
2023-02-22T22:44:22.297Z,7.90
2023-02-22T22:46:53.440Z,8.70
2023-02-22T22:49:20.542Z,8.87
2023-02-22T22:51:47.468Z,8.97
2023-02-22T22:54:14.658Z,9.17
2023-02-22T22:56:41.612Z,9.90
2023-02-22T22:59:10.594Z,10.33
2023-02-22T23:01:44.188Z,10.27
2023-02-22T23:04:16.806Z,10.10
2023-02-22T23:06:51.890Z,9.23
2023-02-22T23:09:22.157Z,9.37
2023-02-22T23:12:01.876Z,10.37
2023-02-22T23:14:31.049Z,11.03
2023-02-22T23:17:05.681Z,9.50
2023-02-22T23:19:35.199Z,11.13
2023-02-22T23:22:05.407Z,9.93
2023-02-22T23:24:37.645Z,9.53
2023-02-22T23:27:10.693Z,9.63
2023-02-22T23:29:40.816Z,8.73
2023-02-22T23:32:09.689Z,9.23
2023-02-22T23:34:38.504Z,10.90
2023-02-22T23:37:09.749Z,10.90
2023-02-22T23:39:37.004Z,12.50
2023-02-22T23:42:03.901Z,12.90
2023-02-22T23:44:30.881Z,12.53
2023-02-22T23:46:57.842Z,13.30
2023-02-22T23:49:35.872Z,13.50
2023-02-22T23:52:05.072Z,12.57
2023-02-22T23:54:36.339Z,12.20
2023-02-22T23:57:04.582Z,12.40
2023-02-22T23:59:33.155Z,13.50
